sensor_id;sensor_type;location;lat;lon;timestamp;P1;durP1;ratioP1;P2;durP2;ratioP2
37349;SDS011;23231;52.358;4.926;2023-01-13T00:04:18;27.98;;;5.03;;
37349;SDS011;23231;52.358;4.926;2023-01-13T00:09:18;22.08;;;4.72;;
37349;SDS011;23231;52.358;4.926;2023-01-13T00:14:18;19.20;;;3.75;;
37349;SDS011;23231;52.358;4.926;2023-01-13T00:19:19;26.58;;;4.00;;
37349;SDS011;23231;52.358;4.926;2023-01-13T00:24:19;36.90;;;5.60;;
37349;SDS011;23231;52.358;4.926;2023-01-13T00:29:20;32.17;;;5.90;;
37349;SDS011;23231;52.358;4.926;2023-01-13T00:34:20;26.08;;;4.75;;
37349;SDS011;23231;52.358;4.926;2023-01-13T00:39:21;27.63;;;5.93;;
37349;SDS011;23231;52.358;4.926;2023-01-13T00:44:21;27.83;;;4.57;;
37349;SDS011;23231;52.358;4.926;2023-01-13T00:49:22;28.10;;;4.85;;
37349;SDS011;23231;52.358;4.926;2023-01-13T00:54:22;30.75;;;5.55;;
37349;SDS011;23231;52.358;4.926;2023-01-13T00:59:23;28.70;;;5.25;;
37349;SDS011;23231;52.358;4.926;2023-01-13T01:04:23;31.77;;;4.30;;
37349;SDS011;23231;52.358;4.926;2023-01-13T01:09:23;22.02;;;4.00;;
37349;SDS011;23231;52.358;4.926;2023-01-13T01:14:31;33.63;;;4.80;;
37349;SDS011;23231;52.358;4.926;2023-01-13T01:19:31;18.17;;;3.53;;
37349;SDS011;23231;52.358;4.926;2023-01-13T01:24:36;27.30;;;5.05;;
37349;SDS011;23231;52.358;4.926;2023-01-13T01:29:36;26.38;;;4.28;;
37349;SDS011;23231;52.358;4.926;2023-01-13T01:34:38;25.45;;;4.00;;
37349;SDS011;23231;52.358;4.926;2023-01-13T01:39:38;27.13;;;4.13;;
37349;SDS011;23231;52.358;4.926;2023-01-13T01:49:42;25.45;;;5.22;;
37349;SDS011;23231;52.358;4.926;2023-01-13T01:59:48;33.97;;;4.57;;
37349;SDS011;23231;52.358;4.926;2023-01-13T02:04:49;35.47;;;5.20;;
37349;SDS011;23231;52.358;4.926;2023-01-13T02:09:51;29.35;;;4.72;;
37349;SDS011;23231;52.358;4.926;2023-01-13T02:14:53;32.47;;;4.82;;
37349;SDS011;23231;52.358;4.926;2023-01-13T02:31:06;27.30;;;6.07;;
37349;SDS011;23231;52.358;4.926;2023-01-13T02:42:09;27.95;;;5.78;;
37349;SDS011;23231;52.358;4.926;2023-01-13T02:47:33;31.17;;;5.00;;
37349;SDS011;23231;52.358;4.926;2023-01-13T02:52:37;30.77;;;4.28;;
37349;SDS011;23231;52.358;4.926;2023-01-13T02:57:40;33.00;;;5.63;;
37349;SDS011;23231;52.358;4.926;2023-01-13T03:02:41;28.27;;;4.15;;
37349;SDS011;23231;52.358;4.926;2023-01-13T03:07:43;38.92;;;5.65;;
37349;SDS011;23231;52.358;4.926;2023-01-13T03:13:17;31.67;;;5.38;;
37349;SDS011;23231;52.358;4.926;2023-01-13T03:28:58;33.00;;;5.18;;
37349;SDS011;23231;52.358;4.926;2023-01-13T03:34:06;27.08;;;5.15;;
37349;SDS011;23231;52.358;4.926;2023-01-13T03:39:11;33.83;;;5.28;;
37349;SDS011;23231;52.358;4.926;2023-01-13T03:44:16;25.10;;;4.32;;
37349;SDS011;23231;52.358;4.926;2023-01-13T03:49:44;23.90;;;4.82;;
37349;SDS011;23231;52.358;4.926;2023-01-13T03:55:01;29.40;;;4.78;;
37349;SDS011;23231;52.358;4.926;2023-01-13T04:00:08;31.73;;;4.40;;
37349;SDS011;23231;52.358;4.926;2023-01-13T04:05:09;35.72;;;5.43;;
37349;SDS011;23231;52.358;4.926;2023-01-13T04:10:11;33.97;;;5.50;;
37349;SDS011;23231;52.358;4.926;2023-01-13T04:15:17;22.80;;;3.92;;
37349;SDS011;23231;52.358;4.926;2023-01-13T04:20:18;21.73;;;3.60;;
37349;SDS011;23231;52.358;4.926;2023-01-13T04:25:19;21.10;;;4.60;;
37349;SDS011;23231;52.358;4.926;2023-01-13T04:30:20;24.25;;;3.78;;
37349;SDS011;23231;52.358;4.926;2023-01-13T04:35:20;19.65;;;3.63;;
37349;SDS011;23231;52.358;4.926;2023-01-13T04:40:20;26.85;;;3.53;;
37349;SDS011;23231;52.358;4.926;2023-01-13T04:45:21;19.80;;;3.75;;
37349;SDS011;23231;52.358;4.926;2023-01-13T04:50:21;22.38;;;3.95;;
37349;SDS011;23231;52.358;4.926;2023-01-13T04:55:24;16.55;;;3.13;;
37349;SDS011;23231;52.358;4.926;2023-01-13T05:00:24;26.77;;;3.42;;
37349;SDS011;23231;52.358;4.926;2023-01-13T05:05:25;18.88;;;3.42;;
37349;SDS011;23231;52.358;4.926;2023-01-13T05:10:27;18.63;;;2.72;;
37349;SDS011;23231;52.358;4.926;2023-01-13T05:15:27;22.60;;;3.10;;
37349;SDS011;23231;52.358;4.926;2023-01-13T05:20:46;19.52;;;3.72;;
37349;SDS011;23231;52.358;4.926;2023-01-13T05:25:47;25.35;;;2.65;;
37349;SDS011;23231;52.358;4.926;2023-01-13T05:30:47;20.48;;;3.10;;
37349;SDS011;23231;52.358;4.926;2023-01-13T05:35:48;16.80;;;2.63;;
37349;SDS011;23231;52.358;4.926;2023-01-13T05:40:48;17.45;;;3.42;;
37349;SDS011;23231;52.358;4.926;2023-01-13T05:46:08;26.25;;;3.40;;
37349;SDS011;23231;52.358;4.926;2023-01-13T05:51:09;21.52;;;2.85;;
37349;SDS011;23231;52.358;4.926;2023-01-13T05:56:10;18.75;;;3.45;;
37349;SDS011;23231;52.358;4.926;2023-01-13T06:01:11;18.58;;;3.30;;
37349;SDS011;23231;52.358;4.926;2023-01-13T06:06:11;24.85;;;4.72;;
37349;SDS011;23231;52.358;4.926;2023-01-13T06:11:12;26.90;;;4.13;;
37349;SDS011;23231;52.358;4.926;2023-01-13T06:16:12;19.50;;;3.47;;
37349;SDS011;23231;52.358;4.926;2023-01-13T06:21:12;31.38;;;4.68;;
37349;SDS011;23231;52.358;4.926;2023-01-13T06:26:15;22.30;;;3.78;;
37349;SDS011;23231;52.358;4.926;2023-01-13T06:31:20;19.98;;;3.40;;
37349;SDS011;23231;52.358;4.926;2023-01-13T06:36:31;19.45;;;2.90;;
37349;SDS011;23231;52.358;4.926;2023-01-13T06:41:36;21.50;;;3.50;;
37349;SDS011;23231;52.358;4.926;2023-01-13T06:46:55;24.08;;;3.30;;
37349;SDS011;23231;52.358;4.926;2023-01-13T06:51:55;26.42;;;3.42;;
37349;SDS011;23231;52.358;4.926;2023-01-13T06:56:56;24.23;;;3.53;;
37349;SDS011;23231;52.358;4.926;2023-01-13T07:01:56;29.00;;;3.90;;
37349;SDS011;23231;52.358;4.926;2023-01-13T07:06:56;14.75;;;3.13;;
37349;SDS011;23231;52.358;4.926;2023-01-13T07:11:57;29.25;;;4.00;;
37349;SDS011;23231;52.358;4.926;2023-01-13T07:16:57;23.98;;;3.83;;
37349;SDS011;23231;52.358;4.926;2023-01-13T07:21:58;23.75;;;3.70;;
37349;SDS011;23231;52.358;4.926;2023-01-13T07:26:58;28.92;;;4.13;;
37349;SDS011;23231;52.358;4.926;2023-01-13T07:31:58;22.83;;;3.80;;
37349;SDS011;23231;52.358;4.926;2023-01-13T07:37:00;24.05;;;4.57;;
37349;SDS011;23231;52.358;4.926;2023-01-13T07:42:01;21.10;;;3.38;;
37349;SDS011;23231;52.358;4.926;2023-01-13T07:47:20;21.42;;;4.20;;
37349;SDS011;23231;52.358;4.926;2023-01-13T07:52:22;25.50;;;3.90;;
37349;SDS011;23231;52.358;4.926;2023-01-13T07:57:22;20.80;;;3.22;;
37349;SDS011;23231;52.358;4.926;2023-01-13T08:02:23;28.13;;;4.28;;
37349;SDS011;23231;52.358;4.926;2023-01-13T08:07:23;24.55;;;4.32;;
37349;SDS011;23231;52.358;4.926;2023-01-13T08:12:23;23.85;;;3.53;;
37349;SDS011;23231;52.358;4.926;2023-01-13T08:17:42;23.38;;;4.55;;
37349;SDS011;23231;52.358;4.926;2023-01-13T08:22:43;24.33;;;3.75;;
37349;SDS011;23231;52.358;4.926;2023-01-13T08:27:43;27.50;;;4.37;;
37349;SDS011;23231;52.358;4.926;2023-01-13T08:32:44;24.08;;;4.63;;
37349;SDS011;23231;52.358;4.926;2023-01-13T08:37:45;25.47;;;4.70;;
37349;SDS011;23231;52.358;4.926;2023-01-13T08:42:46;25.13;;;5.03;;
37349;SDS011;23231;52.358;4.926;2023-01-13T08:47:47;24.33;;;4.50;;
37349;SDS011;23231;52.358;4.926;2023-01-13T08:52:47;24.60;;;4.22;;
37349;SDS011;23231;52.358;4.926;2023-01-13T08:57:48;25.15;;;5.38;;
37349;SDS011;23231;52.358;4.926;2023-01-13T09:02:48;28.52;;;3.53;;
37349;SDS011;23231;52.358;4.926;2023-01-13T09:07:48;29.38;;;4.28;;
37349;SDS011;23231;52.358;4.926;2023-01-13T09:12:49;24.17;;;4.97;;
37349;SDS011;23231;52.358;4.926;2023-01-13T09:18:08;22.42;;;4.10;;
37349;SDS011;23231;52.358;4.926;2023-01-13T09:23:08;16.35;;;2.95;;
37349;SDS011;23231;52.358;4.926;2023-01-13T09:28:09;19.60;;;3.72;;
37349;SDS011;23231;52.358;4.926;2023-01-13T09:33:09;18.08;;;3.03;;
37349;SDS011;23231;52.358;4.926;2023-01-13T09:38:28;21.23;;;3.90;;
37349;SDS011;23231;52.358;4.926;2023-01-13T09:43:30;22.67;;;3.55;;
37349;SDS011;23231;52.358;4.926;2023-01-13T09:48:53;16.33;;;3.53;;
37349;SDS011;23231;52.358;4.926;2023-01-13T09:53:56;18.60;;;3.25;;
37349;SDS011;23231;52.358;4.926;2023-01-13T09:58:59;17.52;;;3.15;;
37349;SDS011;23231;52.358;4.926;2023-01-13T10:04:09;20.38;;;4.10;;
37349;SDS011;23231;52.358;4.926;2023-01-13T10:09:17;19.40;;;2.97;;
37349;SDS011;23231;52.358;4.926;2023-01-13T10:30:48;16.75;;;3.25;;
37349;SDS011;23231;52.358;4.926;2023-01-13T10:41:00;19.10;;;3.80;;
37349;SDS011;23231;52.358;4.926;2023-01-13T10:51:19;16.27;;;2.78;;
37349;SDS011;23231;52.358;4.926;2023-01-13T10:56:20;15.80;;;3.28;;
37349;SDS011;23231;52.358;4.926;2023-01-13T11:01:23;17.42;;;3.00;;
37349;SDS011;23231;52.358;4.926;2023-01-13T11:06:25;13.23;;;2.80;;
37349;SDS011;23231;52.358;4.926;2023-01-13T11:16:34;18.70;;;3.08;;
37349;SDS011;23231;52.358;4.926;2023-01-13T11:21:38;16.13;;;2.85;;
37349;SDS011;23231;52.358;4.926;2023-01-13T11:26:49;16.65;;;2.80;;
37349;SDS011;23231;52.358;4.926;2023-01-13T11:31:53;15.77;;;2.85;;
37349;SDS011;23231;52.358;4.926;2023-01-13T11:37:00;13.85;;;2.20;;
37349;SDS011;23231;52.358;4.926;2023-01-13T11:42:07;10.98;;;3.10;;
37349;SDS011;23231;52.358;4.926;2023-01-13T11:47:22;17.27;;;2.63;;
37349;SDS011;23231;52.358;4.926;2023-01-13T11:52:31;14.15;;;2.75;;
37349;SDS011;23231;52.358;4.926;2023-01-13T12:02:53;15.05;;;2.40;;
37349;SDS011;23231;52.358;4.926;2023-01-13T12:24:24;13.02;;;2.60;;
37349;SDS011;23231;52.358;4.926;2023-01-13T12:29:35;19.25;;;2.97;;
37349;SDS011;23231;52.358;4.926;2023-01-13T12:55:33;12.90;;;2.30;;
37349;SDS011;23231;52.358;4.926;2023-01-13T13:06:00;13.45;;;2.63;;
37349;SDS011;23231;52.358;4.926;2023-01-13T13:27:21;12.00;;;2.75;;
37349;SDS011;23231;52.358;4.926;2023-01-13T13:43:38;12.98;;;3.75;;
37349;SDS011;23231;52.358;4.926;2023-01-13T13:48:58;12.00;;;2.10;;
37349;SDS011;23231;52.358;4.926;2023-01-13T13:53:58;17.90;;;3.13;;
37349;SDS011;23231;52.358;4.926;2023-01-13T13:59:01;12.93;;;2.70;;
37349;SDS011;23231;52.358;4.926;2023-01-13T14:04:09;17.55;;;3.08;;
37349;SDS011;23231;52.358;4.926;2023-01-13T14:09:17;15.57;;;2.95;;
37349;SDS011;23231;52.358;4.926;2023-01-13T14:14:19;10.35;;;2.17;;
37349;SDS011;23231;52.358;4.926;2023-01-13T14:24:33;11.38;;;2.05;;
37349;SDS011;23231;52.358;4.926;2023-01-13T14:29:45;16.10;;;2.85;;
37349;SDS011;23231;52.358;4.926;2023-01-13T14:34:46;14.70;;;2.55;;
37349;SDS011;23231;52.358;4.926;2023-01-13T14:39:46;25.70;;;3.30;;
37349;SDS011;23231;52.358;4.926;2023-01-13T14:44:50;15.77;;;2.83;;
37349;SDS011;23231;52.358;4.926;2023-01-13T14:49:54;16.48;;;3.58;;
37349;SDS011;23231;52.358;4.926;2023-01-13T15:00:16;35.63;;;4.00;;
37349;SDS011;23231;52.358;4.926;2023-01-13T15:10:23;17.08;;;2.97;;
37349;SDS011;23231;52.358;4.926;2023-01-13T15:20:36;13.05;;;2.33;;
37349;SDS011;23231;52.358;4.926;2023-01-13T15:25:38;16.08;;;2.83;;
37349;SDS011;23231;52.358;4.926;2023-01-13T15:30:39;16.55;;;2.50;;
37349;SDS011;23231;52.358;4.926;2023-01-13T15:35:40;14.38;;;2.58;;
37349;SDS011;23231;52.358;4.926;2023-01-13T15:40:50;12.65;;;2.58;;
37349;SDS011;23231;52.358;4.926;2023-01-13T15:45:51;26.02;;;3.50;;
37349;SDS011;23231;52.358;4.926;2023-01-13T15:51:11;14.68;;;2.47;;
37349;SDS011;23231;52.358;4.926;2023-01-13T15:56:14;14.32;;;2.53;;
37349;SDS011;23231;52.358;4.926;2023-01-13T16:01:20;11.90;;;2.33;;
37349;SDS011;23231;52.358;4.926;2023-01-13T16:06:28;12.65;;;3.13;;
37349;SDS011;23231;52.358;4.926;2023-01-13T16:11:35;14.60;;;2.33;;
37349;SDS011;23231;52.358;4.926;2023-01-13T16:16:35;11.27;;;2.38;;
37349;SDS011;23231;52.358;4.926;2023-01-13T16:21:36;12.20;;;2.50;;
37349;SDS011;23231;52.358;4.926;2023-01-13T16:26:37;13.15;;;2.88;;
37349;SDS011;23231;52.358;4.926;2023-01-13T16:31:37;13.20;;;3.17;;
37349;SDS011;23231;52.358;4.926;2023-01-13T16:36:38;13.68;;;2.47;;
37349;SDS011;23231;52.358;4.926;2023-01-13T16:41:38;16.45;;;2.47;;
37349;SDS011;23231;52.358;4.926;2023-01-13T16:46:39;13.82;;;2.30;;
37349;SDS011;23231;52.358;4.926;2023-01-13T16:51:39;15.05;;;2.67;;
37349;SDS011;23231;52.358;4.926;2023-01-13T16:56:40;15.43;;;2.40;;
37349;SDS011;23231;52.358;4.926;2023-01-13T17:01:41;14.52;;;2.97;;
37349;SDS011;23231;52.358;4.926;2023-01-13T17:06:58;13.55;;;2.53;;
37349;SDS011;23231;52.358;4.926;2023-01-13T17:12:00;16.17;;;2.42;;
37349;SDS011;23231;52.358;4.926;2023-01-13T17:17:00;11.75;;;2.50;;
37349;SDS011;23231;52.358;4.926;2023-01-13T17:22:00;13.85;;;2.10;;
37349;SDS011;23231;52.358;4.926;2023-01-13T17:27:01;10.57;;;1.98;;
37349;SDS011;23231;52.358;4.926;2023-01-13T17:32:02;8.82;;;2.45;;
37349;SDS011;23231;52.358;4.926;2023-01-13T17:37:03;18.42;;;4.13;;
37349;SDS011;23231;52.358;4.926;2023-01-13T17:42:03;16.17;;;3.45;;
37349;SDS011;23231;52.358;4.926;2023-01-13T17:47:04;18.30;;;3.95;;
37349;SDS011;23231;52.358;4.926;2023-01-13T17:52:05;17.38;;;3.15;;
37349;SDS011;23231;52.358;4.926;2023-01-13T17:57:06;16.10;;;3.35;;
37349;SDS011;23231;52.358;4.926;2023-01-13T18:02:08;12.80;;;2.67;;
37349;SDS011;23231;52.358;4.926;2023-01-13T18:07:09;16.42;;;3.10;;
37349;SDS011;23231;52.358;4.926;2023-01-13T18:12:10;19.52;;;3.60;;
37349;SDS011;23231;52.358;4.926;2023-01-13T18:17:10;12.68;;;2.92;;
37349;SDS011;23231;52.358;4.926;2023-01-13T18:22:12;16.42;;;3.00;;
37349;SDS011;23231;52.358;4.926;2023-01-13T18:27:32;13.70;;;2.50;;
37349;SDS011;23231;52.358;4.926;2023-01-13T18:32:34;10.82;;;3.17;;
37349;SDS011;23231;52.358;4.926;2023-01-13T18:37:36;11.63;;;2.70;;
37349;SDS011;23231;52.358;4.926;2023-01-13T18:42:39;14.88;;;2.55;;
37349;SDS011;23231;52.358;4.926;2023-01-13T18:47:54;16.85;;;3.10;;
37349;SDS011;23231;52.358;4.926;2023-01-13T18:52:55;18.48;;;4.32;;
37349;SDS011;23231;52.358;4.926;2023-01-13T18:57:56;15.85;;;2.60;;
37349;SDS011;23231;52.358;4.926;2023-01-13T19:02:56;11.65;;;2.58;;
37349;SDS011;23231;52.358;4.926;2023-01-13T19:08:03;16.58;;;2.47;;
37349;SDS011;23231;52.358;4.926;2023-01-13T19:13:04;13.35;;;2.40;;
37349;SDS011;23231;52.358;4.926;2023-01-13T19:18:04;10.77;;;2.70;;
37349;SDS011;23231;52.358;4.926;2023-01-13T19:23:05;10.25;;;2.05;;
37349;SDS011;23231;52.358;4.926;2023-01-13T19:28:05;11.48;;;2.35;;
37349;SDS011;23231;52.358;4.926;2023-01-13T19:33:05;15.02;;;2.70;;
37349;SDS011;23231;52.358;4.926;2023-01-13T19:38:06;13.38;;;3.17;;
37349;SDS011;23231;52.358;4.926;2023-01-13T19:43:07;9.07;;;2.58;;
37349;SDS011;23231;52.358;4.926;2023-01-13T19:48:26;12.38;;;3.22;;
37349;SDS011;23231;52.358;4.926;2023-01-13T19:53:27;9.38;;;2.40;;
37349;SDS011;23231;52.358;4.926;2023-01-13T19:58:28;11.05;;;2.40;;
37349;SDS011;23231;52.358;4.926;2023-01-13T20:03:28;10.82;;;2.05;;
37349;SDS011;23231;52.358;4.926;2023-01-13T20:08:34;12.93;;;2.45;;
37349;SDS011;23231;52.358;4.926;2023-01-13T20:13:35;7.95;;;1.88;;
37349;SDS011;23231;52.358;4.926;2023-01-13T20:18:35;9.18;;;2.47;;
37349;SDS011;23231;52.358;4.926;2023-01-13T20:23:36;14.60;;;2.28;;
37349;SDS011;23231;52.358;4.926;2023-01-13T20:28:36;12.23;;;2.58;;
37349;SDS011;23231;52.358;4.926;2023-01-13T20:33:38;12.57;;;2.55;;
37349;SDS011;23231;52.358;4.926;2023-01-13T20:38:39;16.05;;;2.47;;
37349;SDS011;23231;52.358;4.926;2023-01-13T20:43:39;15.73;;;2.88;;
37349;SDS011;23231;52.358;4.926;2023-01-13T20:48:39;12.10;;;2.33;;
37349;SDS011;23231;52.358;4.926;2023-01-13T20:53:40;12.60;;;2.90;;
37349;SDS011;23231;52.358;4.926;2023-01-13T20:58:40;14.65;;;2.90;;
37349;SDS011;23231;52.358;4.926;2023-01-13T21:03:42;12.13;;;2.70;;
37349;SDS011;23231;52.358;4.926;2023-01-13T21:08:43;13.27;;;2.97;;
37349;SDS011;23231;52.358;4.926;2023-01-13T21:13:45;13.57;;;2.92;;
37349;SDS011;23231;52.358;4.926;2023-01-13T21:19:04;14.82;;;2.67;;
37349;SDS011;23231;52.358;4.926;2023-01-13T21:24:09;15.87;;;3.63;;
37349;SDS011;23231;52.358;4.926;2023-01-13T21:29:09;15.90;;;3.17;;
37349;SDS011;23231;52.358;4.926;2023-01-13T21:34:10;10.07;;;2.13;;
37349;SDS011;23231;52.358;4.926;2023-01-13T21:39:10;11.88;;;2.53;;
37349;SDS011;23231;52.358;4.926;2023-01-13T21:44:17;15.50;;;3.08;;
37349;SDS011;23231;52.358;4.926;2023-01-13T21:49:38;13.48;;;3.00;;
37349;SDS011;23231;52.358;4.926;2023-01-13T21:54:43;19.25;;;3.35;;
37349;SDS011;23231;52.358;4.926;2023-01-13T22:00:02;16.48;;;2.80;;
37349;SDS011;23231;52.358;4.926;2023-01-13T22:05:05;17.50;;;2.40;;
37349;SDS011;23231;52.358;4.926;2023-01-13T22:10:07;19.70;;;3.05;;
37349;SDS011;23231;52.358;4.926;2023-01-13T22:15:10;17.95;;;2.85;;
37349;SDS011;23231;52.358;4.926;2023-01-13T22:20:12;10.80;;;2.95;;
37349;SDS011;23231;52.358;4.926;2023-01-13T22:25:14;16.70;;;2.80;;
37349;SDS011;23231;52.358;4.926;2023-01-13T22:30:18;10.30;;;2.53;;
37349;SDS011;23231;52.358;4.926;2023-01-13T22:35:20;18.80;;;3.40;;
37349;SDS011;23231;52.358;4.926;2023-01-13T22:40:21;16.35;;;2.85;;
37349;SDS011;23231;52.358;4.926;2023-01-13T22:45:21;16.60;;;2.67;;
37349;SDS011;23231;52.358;4.926;2023-01-13T22:50:21;19.40;;;4.00;;
37349;SDS011;23231;52.358;4.926;2023-01-13T22:55:22;12.10;;;2.45;;
37349;SDS011;23231;52.358;4.926;2023-01-13T23:00:22;16.42;;;3.08;;
37349;SDS011;23231;52.358;4.926;2023-01-13T23:05:27;18.08;;;3.13;;
37349;SDS011;23231;52.358;4.926;2023-01-13T23:10:27;14.07;;;2.83;;
37349;SDS011;23231;52.358;4.926;2023-01-13T23:15:28;16.90;;;3.03;;
37349;SDS011;23231;52.358;4.926;2023-01-13T23:20:28;15.48;;;2.47;;
37349;SDS011;23231;52.358;4.926;2023-01-13T23:25:29;13.52;;;2.50;;
37349;SDS011;23231;52.358;4.926;2023-01-13T23:30:29;12.00;;;2.42;;
37349;SDS011;23231;52.358;4.926;2023-01-13T23:35:30;17.52;;;3.17;;
37349;SDS011;23231;52.358;4.926;2023-01-13T23:40:32;16.20;;;2.70;;
37349;SDS011;23231;52.358;4.926;2023-01-13T23:45:33;12.23;;;2.22;;
37349;SDS011;23231;52.358;4.926;2023-01-13T23:50:33;13.88;;;3.20;;
37349;SDS011;23231;52.358;4.926;2023-01-13T23:55:34;16.38;;;2.35;;
